Karatsu, Japan
Current Conditions -  °F | °C
As of 11:00 AM on Tuesday 21 Oct 2014 (Local Time) from RJFS Reporting Station
Broken Clouds Broken Clouds  
Wind Chill: 73°   Ceiling: 7000
Heat Index: 73°   Visibility: 6mi
Dew Point: 63°   Wind: 5mph
Humidity: 69%   Direction: 160°SSE
Pressure: 30"   Gusts: NA
Location:  33.44°N, 129.97°E
Report Text: RJFS 210200Z 16004KT 110V210 9999 FEW025 BKN070 BKN/// 23/17 Q1016
Loading
Personal Weather Stations






























Interactive Weather Map
Tropical Storm Tracking
New forecast layout! Learn more

10-Day Weather Forecast

Advertisements
Track Severe Weather on mobile